sensor_id;sensor_type;location;lat;lon;timestamp;P1;durP1;ratioP1;P2;durP2;ratioP2
52380;SDS011;38310;52.796;6.942;2023-02-21T00:00:36;40.08;;;27.17;;
52380;SDS011;38310;52.796;6.942;2023-02-21T00:03:20;42.80;;;27.35;;
52380;SDS011;38310;52.796;6.942;2023-02-21T00:06:07;38.10;;;26.67;;
52380;SDS011;38310;52.796;6.942;2023-02-21T00:08:52;37.38;;;26.65;;
52380;SDS011;38310;52.796;6.942;2023-02-21T00:11:39;41.30;;;27.30;;
52380;SDS011;38310;52.796;6.942;2023-02-21T00:14:25;38.00;;;26.70;;
52380;SDS011;38310;52.796;6.942;2023-02-21T00:17:10;43.90;;;28.27;;
52380;SDS011;38310;52.796;6.942;2023-02-21T00:19:54;41.10;;;26.30;;
52380;SDS011;38310;52.796;6.942;2023-02-21T00:22:38;43.45;;;28.17;;
52380;SDS011;38310;52.796;6.942;2023-02-21T00:25:22;39.17;;;26.55;;
52380;SDS011;38310;52.796;6.942;2023-02-21T00:28:07;45.97;;;26.88;;
52380;SDS011;38310;52.796;6.942;2023-02-21T00:30:51;44.40;;;27.83;;
52380;SDS011;38310;52.796;6.942;2023-02-21T00:33:36;38.67;;;25.70;;
52380;SDS011;38310;52.796;6.942;2023-02-21T00:36:20;39.45;;;25.55;;
52380;SDS011;38310;52.796;6.942;2023-02-21T00:39:04;38.55;;;26.10;;
52380;SDS011;38310;52.796;6.942;2023-02-21T00:41:49;38.10;;;24.75;;
52380;SDS011;38310;52.796;6.942;2023-02-21T00:44:33;41.72;;;25.45;;
52380;SDS011;38310;52.796;6.942;2023-02-21T00:47:18;42.78;;;25.25;;
52380;SDS011;38310;52.796;6.942;2023-02-21T00:50:02;45.15;;;25.13;;
52380;SDS011;38310;52.796;6.942;2023-02-21T00:52:46;41.08;;;24.38;;
52380;SDS011;38310;52.796;6.942;2023-02-21T00:55:30;38.28;;;23.52;;
52380;SDS011;38310;52.796;6.942;2023-02-21T00:58:15;36.40;;;24.65;;
52380;SDS011;38310;52.796;6.942;2023-02-21T01:00:59;36.65;;;23.30;;
52380;SDS011;38310;52.796;6.942;2023-02-21T01:03:44;34.58;;;23.17;;
52380;SDS011;38310;52.796;6.942;2023-02-21T01:06:28;39.30;;;24.58;;
52380;SDS011;38310;52.796;6.942;2023-02-21T01:09:12;36.33;;;22.40;;
52380;SDS011;38310;52.796;6.942;2023-02-21T01:11:57;39.22;;;23.15;;
52380;SDS011;38310;52.796;6.942;2023-02-21T01:14:41;35.30;;;24.08;;
52380;SDS011;38310;52.796;6.942;2023-02-21T01:17:26;40.53;;;23.65;;
52380;SDS011;38310;52.796;6.942;2023-02-21T01:20:10;38.28;;;22.35;;
52380;SDS011;38310;52.796;6.942;2023-02-21T01:22:55;34.60;;;22.73;;
52380;SDS011;38310;52.796;6.942;2023-02-21T01:25:39;36.10;;;22.33;;
52380;SDS011;38310;52.796;6.942;2023-02-21T01:28:24;36.28;;;22.52;;
52380;SDS011;38310;52.796;6.942;2023-02-21T01:31:08;30.83;;;21.80;;
52380;SDS011;38310;52.796;6.942;2023-02-21T01:33:52;35.13;;;21.60;;
52380;SDS011;38310;52.796;6.942;2023-02-21T01:36:39;30.73;;;21.08;;
52380;SDS011;38310;52.796;6.942;2023-02-21T01:39:24;35.90;;;21.77;;
52380;SDS011;38310;52.796;6.942;2023-02-21T01:42:09;34.80;;;21.48;;
52380;SDS011;38310;52.796;6.942;2023-02-21T01:48:18;34.50;;;21.00;;
52380;SDS011;38310;52.796;6.942;2023-02-21T01:51:04;39.45;;;23.10;;
52380;SDS011;38310;52.796;6.942;2023-02-21T01:53:51;34.03;;;21.70;;
52380;SDS011;38310;52.796;6.942;2023-02-21T01:56:37;32.33;;;21.50;;
52380;SDS011;38310;52.796;6.942;2023-02-21T01:59:22;35.65;;;23.15;;
52380;SDS011;38310;52.796;6.942;2023-02-21T02:02:09;37.10;;;22.65;;
52380;SDS011;38310;52.796;6.942;2023-02-21T02:04:54;36.17;;;22.45;;
52380;SDS011;38310;52.796;6.942;2023-02-21T02:07:39;37.97;;;24.13;;
52380;SDS011;38310;52.796;6.942;2023-02-21T02:10:25;38.53;;;23.27;;
52380;SDS011;38310;52.796;6.942;2023-02-21T02:35:11;39.92;;;24.05;;
52380;SDS011;38310;52.796;6.942;2023-02-21T02:38:01;41.83;;;22.88;;
52380;SDS011;38310;52.796;6.942;2023-02-21T02:43:29;34.45;;;22.58;;
52380;SDS011;38310;52.796;6.942;2023-02-21T02:48:42;36.42;;;23.50;;
52380;SDS011;38310;52.796;6.942;2023-02-21T02:51:11;38.33;;;24.27;;
52380;SDS011;38310;52.796;6.942;2023-02-21T02:53:39;34.60;;;22.83;;
52380;SDS011;38310;52.796;6.942;2023-02-21T02:56:06;38.17;;;23.50;;
52380;SDS011;38310;52.796;6.942;2023-02-21T02:58:40;41.53;;;24.00;;
52380;SDS011;38310;52.796;6.942;2023-02-21T03:06:49;32.30;;;23.60;;
52380;SDS011;38310;52.796;6.942;2023-02-21T03:20:25;39.30;;;25.13;;
52380;SDS011;38310;52.796;6.942;2023-02-21T03:22:52;35.88;;;22.90;;
52380;SDS011;38310;52.796;6.942;2023-02-21T03:25:21;41.60;;;24.08;;
52380;SDS011;38310;52.796;6.942;2023-02-21T03:27:48;31.95;;;23.23;;
52380;SDS011;38310;52.796;6.942;2023-02-21T03:30:17;35.22;;;23.48;;
52380;SDS011;38310;52.796;6.942;2023-02-21T03:32:45;35.60;;;24.27;;
52380;SDS011;38310;52.796;6.942;2023-02-21T03:35:15;39.70;;;25.13;;
52380;SDS011;38310;52.796;6.942;2023-02-21T03:37:43;35.63;;;24.63;;
52380;SDS011;38310;52.796;6.942;2023-02-21T03:40:16;38.45;;;25.52;;
52380;SDS011;38310;52.796;6.942;2023-02-21T03:42:48;40.78;;;25.70;;
52380;SDS011;38310;52.796;6.942;2023-02-21T03:45:17;39.83;;;25.17;;
52380;SDS011;38310;52.796;6.942;2023-02-21T03:47:43;37.47;;;24.60;;
52380;SDS011;38310;52.796;6.942;2023-02-21T03:50:09;44.35;;;25.85;;
52380;SDS011;38310;52.796;6.942;2023-02-21T03:52:35;36.35;;;24.30;;
52380;SDS011;38310;52.796;6.942;2023-02-21T03:55:01;34.28;;;24.30;;
52380;SDS011;38310;52.796;6.942;2023-02-21T03:57:27;42.58;;;25.80;;
52380;SDS011;38310;52.796;6.942;2023-02-21T03:59:52;39.83;;;25.13;;
52380;SDS011;38310;52.796;6.942;2023-02-21T04:02:18;37.40;;;25.67;;
52380;SDS011;38310;52.796;6.942;2023-02-21T04:04:44;36.53;;;24.33;;
52380;SDS011;38310;52.796;6.942;2023-02-21T04:07:12;37.28;;;25.30;;
52380;SDS011;38310;52.796;6.942;2023-02-21T04:09:39;41.90;;;25.05;;
52380;SDS011;38310;52.796;6.942;2023-02-21T04:12:05;41.90;;;26.33;;
52380;SDS011;38310;52.796;6.942;2023-02-21T04:14:31;41.15;;;25.75;;
52380;SDS011;38310;52.796;6.942;2023-02-21T04:16:57;38.63;;;26.67;;
52380;SDS011;38310;52.796;6.942;2023-02-21T04:19:23;42.35;;;27.35;;
52380;SDS011;38310;52.796;6.942;2023-02-21T04:21:48;41.97;;;26.33;;
52380;SDS011;38310;52.796;6.942;2023-02-21T04:24:14;41.22;;;27.27;;
52380;SDS011;38310;52.796;6.942;2023-02-21T04:26:40;41.80;;;27.75;;
52380;SDS011;38310;52.796;6.942;2023-02-21T04:29:06;40.72;;;27.23;;
52380;SDS011;38310;52.796;6.942;2023-02-21T04:31:32;36.47;;;26.02;;
52380;SDS011;38310;52.796;6.942;2023-02-21T04:33:58;48.20;;;27.88;;
52380;SDS011;38310;52.796;6.942;2023-02-21T04:36:24;38.90;;;28.25;;
52380;SDS011;38310;52.796;6.942;2023-02-21T04:38:51;42.03;;;27.25;;
52380;SDS011;38310;52.796;6.942;2023-02-21T04:41:17;45.90;;;27.00;;
52380;SDS011;38310;52.796;6.942;2023-02-21T04:43:43;39.30;;;27.52;;
52380;SDS011;38310;52.796;6.942;2023-02-21T04:46:10;40.70;;;27.55;;
52380;SDS011;38310;52.796;6.942;2023-02-21T04:48:40;42.70;;;25.85;;
52380;SDS011;38310;52.796;6.942;2023-02-21T04:51:14;40.10;;;27.15;;
52380;SDS011;38310;52.796;6.942;2023-02-21T04:53:42;39.80;;;27.25;;
52380;SDS011;38310;52.796;6.942;2023-02-21T04:56:08;42.47;;;28.90;;
52380;SDS011;38310;52.796;6.942;2023-02-21T04:58:36;35.53;;;25.40;;
52380;SDS011;38310;52.796;6.942;2023-02-21T05:01:03;42.45;;;26.77;;
52380;SDS011;38310;52.796;6.942;2023-02-21T05:03:29;44.05;;;29.23;;
52380;SDS011;38310;52.796;6.942;2023-02-21T05:05:54;43.88;;;28.20;;
52380;SDS011;38310;52.796;6.942;2023-02-21T05:08:20;42.78;;;28.70;;
52380;SDS011;38310;52.796;6.942;2023-02-21T05:10:48;41.63;;;26.85;;
52380;SDS011;38310;52.796;6.942;2023-02-21T05:13:14;43.70;;;28.02;;
52380;SDS011;38310;52.796;6.942;2023-02-21T05:15:40;41.55;;;27.52;;
52380;SDS011;38310;52.796;6.942;2023-02-21T05:18:06;43.38;;;27.48;;
52380;SDS011;38310;52.796;6.942;2023-02-21T05:20:34;43.13;;;27.95;;
52380;SDS011;38310;52.796;6.942;2023-02-21T05:23:00;46.78;;;29.17;;
52380;SDS011;38310;52.796;6.942;2023-02-21T05:25:25;44.72;;;27.27;;
52380;SDS011;38310;52.796;6.942;2023-02-21T05:27:51;42.45;;;27.45;;
52380;SDS011;38310;52.796;6.942;2023-02-21T05:30:18;44.53;;;28.95;;
52380;SDS011;38310;52.796;6.942;2023-02-21T05:32:46;41.33;;;28.17;;
52380;SDS011;38310;52.796;6.942;2023-02-21T05:35:12;44.55;;;28.85;;
52380;SDS011;38310;52.796;6.942;2023-02-21T05:37:39;47.22;;;29.50;;
52380;SDS011;38310;52.796;6.942;2023-02-21T05:40:05;45.03;;;29.40;;
52380;SDS011;38310;52.796;6.942;2023-02-21T05:42:32;45.05;;;29.27;;
52380;SDS011;38310;52.796;6.942;2023-02-21T05:44:57;44.33;;;29.42;;
52380;SDS011;38310;52.796;6.942;2023-02-21T05:47:23;47.60;;;30.70;;
52380;SDS011;38310;52.796;6.942;2023-02-21T05:49:49;43.58;;;28.63;;
52380;SDS011;38310;52.796;6.942;2023-02-21T05:52:15;45.97;;;28.95;;
52380;SDS011;38310;52.796;6.942;2023-02-21T05:54:42;49.13;;;30.02;;
52380;SDS011;38310;52.796;6.942;2023-02-21T05:57:08;48.53;;;29.73;;
52380;SDS011;38310;52.796;6.942;2023-02-21T05:59:34;48.53;;;30.23;;
52380;SDS011;38310;52.796;6.942;2023-02-21T06:02:02;39.42;;;28.67;;
52380;SDS011;38310;52.796;6.942;2023-02-21T06:04:28;42.55;;;29.05;;
52380;SDS011;38310;52.796;6.942;2023-02-21T06:06:53;42.38;;;28.83;;
52380;SDS011;38310;52.796;6.942;2023-02-21T06:09:19;44.63;;;29.08;;
52380;SDS011;38310;52.796;6.942;2023-02-21T06:11:45;42.13;;;28.75;;
52380;SDS011;38310;52.796;6.942;2023-02-21T06:14:12;43.20;;;27.92;;
52380;SDS011;38310;52.796;6.942;2023-02-21T06:16:40;43.85;;;28.98;;
52380;SDS011;38310;52.796;6.942;2023-02-21T06:19:06;43.03;;;28.90;;
52380;SDS011;38310;52.796;6.942;2023-02-21T06:21:33;40.40;;;28.42;;
52380;SDS011;38310;52.796;6.942;2023-02-21T06:24:02;43.22;;;28.85;;
52380;SDS011;38310;52.796;6.942;2023-02-21T06:26:28;47.50;;;29.48;;
52380;SDS011;38310;52.796;6.942;2023-02-21T06:28:54;41.70;;;27.85;;
52380;SDS011;38310;52.796;6.942;2023-02-21T06:31:20;43.67;;;28.30;;
52380;SDS011;38310;52.796;6.942;2023-02-21T06:33:46;43.67;;;29.73;;
52380;SDS011;38310;52.796;6.942;2023-02-21T06:36:14;42.28;;;28.27;;
52380;SDS011;38310;52.796;6.942;2023-02-21T06:38:45;41.33;;;27.85;;
52380;SDS011;38310;52.796;6.942;2023-02-21T06:41:15;39.47;;;28.33;;
52380;SDS011;38310;52.796;6.942;2023-02-21T06:43:48;41.60;;;28.20;;
52380;SDS011;38310;52.796;6.942;2023-02-21T06:46:16;41.13;;;28.55;;
52380;SDS011;38310;52.796;6.942;2023-02-21T06:48:42;43.53;;;26.83;;
52380;SDS011;38310;52.796;6.942;2023-02-21T06:51:08;40.78;;;27.83;;
52380;SDS011;38310;52.796;6.942;2023-02-21T06:53:38;40.75;;;28.48;;
52380;SDS011;38310;52.796;6.942;2023-02-21T06:56:05;40.88;;;28.38;;
52380;SDS011;38310;52.796;6.942;2023-02-21T06:58:31;42.97;;;27.75;;
52380;SDS011;38310;52.796;6.942;2023-02-21T07:00:57;40.38;;;27.55;;
52380;SDS011;38310;52.796;6.942;2023-02-21T07:03:23;42.65;;;28.35;;
52380;SDS011;38310;52.796;6.942;2023-02-21T07:05:49;38.60;;;26.25;;
52380;SDS011;38310;52.796;6.942;2023-02-21T07:08:14;44.97;;;27.73;;
52380;SDS011;38310;52.796;6.942;2023-02-21T07:10:40;44.45;;;28.30;;
52380;SDS011;38310;52.796;6.942;2023-02-21T07:13:06;40.13;;;27.20;;
52380;SDS011;38310;52.796;6.942;2023-02-21T07:15:31;42.70;;;28.60;;
52380;SDS011;38310;52.796;6.942;2023-02-21T07:17:57;39.67;;;27.10;;
52380;SDS011;38310;52.796;6.942;2023-02-21T07:20:23;41.67;;;27.35;;
52380;SDS011;38310;52.796;6.942;2023-02-21T07:22:49;43.17;;;28.38;;
52380;SDS011;38310;52.796;6.942;2023-02-21T07:25:15;41.78;;;27.77;;
52380;SDS011;38310;52.796;6.942;2023-02-21T07:27:43;45.80;;;30.40;;
52380;SDS011;38310;52.796;6.942;2023-02-21T07:30:10;40.33;;;29.00;;
52380;SDS011;38310;52.796;6.942;2023-02-21T07:32:36;47.20;;;30.10;;
52380;SDS011;38310;52.796;6.942;2023-02-21T07:35:02;46.55;;;29.63;;
52380;SDS011;38310;52.796;6.942;2023-02-21T07:37:28;47.45;;;30.88;;
52380;SDS011;38310;52.796;6.942;2023-02-21T07:39:54;48.17;;;30.55;;
52380;SDS011;38310;52.796;6.942;2023-02-21T07:42:19;47.50;;;31.23;;
52380;SDS011;38310;52.796;6.942;2023-02-21T07:44:45;47.63;;;32.75;;
52380;SDS011;38310;52.796;6.942;2023-02-21T07:47:12;47.20;;;30.70;;
52380;SDS011;38310;52.796;6.942;2023-02-21T07:49:38;48.75;;;32.38;;
52380;SDS011;38310;52.796;6.942;2023-02-21T07:52:05;49.35;;;31.13;;
52380;SDS011;38310;52.796;6.942;2023-02-21T07:54:31;46.35;;;32.10;;
52380;SDS011;38310;52.796;6.942;2023-02-21T07:56:57;52.75;;;32.95;;
52380;SDS011;38310;52.796;6.942;2023-02-21T07:59:23;47.05;;;29.80;;
52380;SDS011;38310;52.796;6.942;2023-02-21T08:01:49;50.85;;;32.65;;
52380;SDS011;38310;52.796;6.942;2023-02-21T08:04:14;49.30;;;32.45;;
52380;SDS011;38310;52.796;6.942;2023-02-21T08:06:45;48.33;;;31.30;;
52380;SDS011;38310;52.796;6.942;2023-02-21T08:09:13;50.13;;;32.22;;
52380;SDS011;38310;52.796;6.942;2023-02-21T08:11:39;45.55;;;31.10;;
52380;SDS011;38310;52.796;6.942;2023-02-21T08:14:05;50.88;;;32.70;;
52380;SDS011;38310;52.796;6.942;2023-02-21T08:16:31;51.50;;;32.63;;
52380;SDS011;38310;52.796;6.942;2023-02-21T08:18:57;51.28;;;33.80;;
52380;SDS011;38310;52.796;6.942;2023-02-21T08:21:23;50.50;;;34.05;;
52380;SDS011;38310;52.796;6.942;2023-02-21T08:23:51;53.67;;;32.83;;
52380;SDS011;38310;52.796;6.942;2023-02-21T08:26:18;51.83;;;32.58;;
52380;SDS011;38310;52.796;6.942;2023-02-21T08:28:44;49.97;;;33.25;;
52380;SDS011;38310;52.796;6.942;2023-02-21T08:31:10;50.90;;;33.45;;
52380;SDS011;38310;52.796;6.942;2023-02-21T08:33:36;57.42;;;34.80;;
52380;SDS011;38310;52.796;6.942;2023-02-21T08:36:01;51.90;;;32.55;;
52380;SDS011;38310;52.796;6.942;2023-02-21T08:38:28;50.33;;;33.92;;
52380;SDS011;38310;52.796;6.942;2023-02-21T08:40:53;59.35;;;34.17;;
52380;SDS011;38310;52.796;6.942;2023-02-21T08:43:19;47.92;;;33.10;;
52380;SDS011;38310;52.796;6.942;2023-02-21T08:45:45;50.67;;;32.45;;
52380;SDS011;38310;52.796;6.942;2023-02-21T08:48:11;54.90;;;34.80;;
52380;SDS011;38310;52.796;6.942;2023-02-21T08:50:37;52.75;;;35.05;;
52380;SDS011;38310;52.796;6.942;2023-02-21T08:53:02;53.03;;;33.50;;
52380;SDS011;38310;52.796;6.942;2023-02-21T08:55:28;52.13;;;33.20;;
52380;SDS011;38310;52.796;6.942;2023-02-21T08:57:54;52.70;;;34.38;;
52380;SDS011;38310;52.796;6.942;2023-02-21T09:00:20;52.42;;;33.88;;
52380;SDS011;38310;52.796;6.942;2023-02-21T09:02:48;62.30;;;33.90;;
52380;SDS011;38310;52.796;6.942;2023-02-21T09:05:17;53.80;;;34.53;;
52380;SDS011;38310;52.796;6.942;2023-02-21T09:07:48;55.50;;;35.08;;
52380;SDS011;38310;52.796;6.942;2023-02-21T09:10:19;49.65;;;33.50;;
52380;SDS011;38310;52.796;6.942;2023-02-21T09:12:45;55.28;;;36.38;;
52380;SDS011;38310;52.796;6.942;2023-02-21T09:15:15;51.42;;;33.55;;
52380;SDS011;38310;52.796;6.942;2023-02-21T09:17:41;57.47;;;35.90;;
52380;SDS011;38310;52.796;6.942;2023-02-21T09:20:09;60.42;;;34.40;;
52380;SDS011;38310;52.796;6.942;2023-02-21T09:22:36;59.28;;;34.75;;
52380;SDS011;38310;52.796;6.942;2023-02-21T09:25:02;53.15;;;33.58;;
52380;SDS011;38310;52.796;6.942;2023-02-21T09:27:28;54.05;;;33.67;;
52380;SDS011;38310;52.796;6.942;2023-02-21T09:30:10;58.38;;;36.40;;
52380;SDS011;38310;52.796;6.942;2023-02-21T09:32:39;60.15;;;36.08;;
52380;SDS011;38310;52.796;6.942;2023-02-21T09:35:06;52.35;;;34.03;;
52380;SDS011;38310;52.796;6.942;2023-02-21T09:37:35;54.25;;;34.08;;
52380;SDS011;38310;52.796;6.942;2023-02-21T09:40:02;52.50;;;34.25;;
52380;SDS011;38310;52.796;6.942;2023-02-21T09:42:29;55.85;;;36.90;;
52380;SDS011;38310;52.796;6.942;2023-02-21T09:44:56;52.17;;;35.45;;
52380;SDS011;38310;52.796;6.942;2023-02-21T09:47:25;56.08;;;35.85;;
52380;SDS011;38310;52.796;6.942;2023-02-21T09:50:03;51.15;;;34.75;;
52380;SDS011;38310;52.796;6.942;2023-02-21T09:52:32;51.45;;;34.03;;
52380;SDS011;38310;52.796;6.942;2023-02-21T09:55:34;55.28;;;34.17;;
52380;SDS011;38310;52.796;6.942;2023-02-21T09:57:52;57.00;;;35.47;;
52380;SDS011;38310;52.796;6.942;2023-02-21T10:00:20;57.38;;;35.10;;
52380;SDS011;38310;52.796;6.942;2023-02-21T10:03:02;57.10;;;35.78;;
52380;SDS011;38310;52.796;6.942;2023-02-21T10:13:59;61.33;;;35.47;;
52380;SDS011;38310;52.796;6.942;2023-02-21T10:16:39;58.20;;;35.38;;
52380;SDS011;38310;52.796;6.942;2023-02-21T10:21:51;59.13;;;36.80;;
52380;SDS011;38310;52.796;6.942;2023-02-21T10:24:23;57.85;;;35.35;;
52380;SDS011;38310;52.796;6.942;2023-02-21T10:26:52;56.67;;;35.80;;
52380;SDS011;38310;52.796;6.942;2023-02-21T10:29:25;59.60;;;37.88;;
52380;SDS011;38310;52.796;6.942;2023-02-21T10:31:58;58.40;;;34.97;;
52380;SDS011;38310;52.796;6.942;2023-02-21T10:34:28;59.42;;;35.17;;
52380;SDS011;38310;52.796;6.942;2023-02-21T10:37:01;56.85;;;34.80;;
52380;SDS011;38310;52.796;6.942;2023-02-21T10:39:46;58.72;;;34.90;;
52380;SDS011;38310;52.796;6.942;2023-02-21T10:42:27;55.70;;;34.83;;
52380;SDS011;38310;52.796;6.942;2023-02-21T10:44:58;57.10;;;35.03;;
52380;SDS011;38310;52.796;6.942;2023-02-21T10:47:28;49.30;;;33.22;;
52380;SDS011;38310;52.796;6.942;2023-02-21T10:50:14;51.00;;;35.05;;
52380;SDS011;38310;52.796;6.942;2023-02-21T10:52:47;51.20;;;33.92;;
52380;SDS011;38310;52.796;6.942;2023-02-21T10:55:16;55.08;;;35.10;;
52380;SDS011;38310;52.796;6.942;2023-02-21T10:57:45;53.10;;;34.95;;
52380;SDS011;38310;52.796;6.942;2023-02-21T11:00:24;54.55;;;33.72;;
52380;SDS011;38310;52.796;6.942;2023-02-21T11:03:12;57.20;;;34.67;;
52380;SDS011;38310;52.796;6.942;2023-02-21T11:08:16;56.63;;;35.08;;
52380;SDS011;38310;52.796;6.942;2023-02-21T11:11:00;61.05;;;36.95;;
52380;SDS011;38310;52.796;6.942;2023-02-21T11:13:28;53.17;;;34.50;;
52380;SDS011;38310;52.796;6.942;2023-02-21T11:18:43;51.92;;;34.33;;
52380;SDS011;38310;52.796;6.942;2023-02-21T11:21:18;54.40;;;33.78;;
52380;SDS011;38310;52.796;6.942;2023-02-21T11:23:45;51.75;;;34.45;;
52380;SDS011;38310;52.796;6.942;2023-02-21T11:26:23;49.50;;;33.78;;
52380;SDS011;38310;52.796;6.942;2023-02-21T11:28:49;55.63;;;34.30;;
52380;SDS011;38310;52.796;6.942;2023-02-21T11:33:54;63.58;;;36.28;;
52380;SDS011;38310;52.796;6.942;2023-02-21T11:36:29;58.13;;;37.65;;
52380;SDS011;38310;52.796;6.942;2023-02-21T11:41:49;58.13;;;36.53;;
52380;SDS011;38310;52.796;6.942;2023-02-21T11:44:33;59.72;;;35.75;;
52380;SDS011;38310;52.796;6.942;2023-02-21T11:47:03;59.88;;;36.47;;
52380;SDS011;38310;52.796;6.942;2023-02-21T11:55:17;55.22;;;35.85;;
52380;SDS011;38310;52.796;6.942;2023-02-21T11:58:00;52.50;;;35.20;;
52380;SDS011;38310;52.796;6.942;2023-02-21T12:03:33;56.78;;;36.28;;
52380;SDS011;38310;52.796;6.942;2023-02-21T12:09:11;55.13;;;34.38;;
52380;SDS011;38310;52.796;6.942;2023-02-21T12:36:18;46.95;;;29.30;;
52380;SDS011;38310;52.796;6.942;2023-02-21T12:53:17;48.95;;;29.75;;
52380;SDS011;38310;52.796;6.942;2023-02-21T12:55:54;45.10;;;29.90;;
52380;SDS011;38310;52.796;6.942;2023-02-21T13:01:33;47.72;;;31.45;;
52380;SDS011;38310;52.796;6.942;2023-02-21T13:06:34;58.65;;;33.35;;
52380;SDS011;38310;52.796;6.942;2023-02-21T13:09:18;50.20;;;31.52;;
52380;SDS011;38310;52.796;6.942;2023-02-21T13:20:00;50.25;;;32.67;;
52380;SDS011;38310;52.796;6.942;2023-02-21T13:22:30;55.38;;;35.03;;
52380;SDS011;38310;52.796;6.942;2023-02-21T13:25:37;55.65;;;33.72;;
52380;SDS011;38310;52.796;6.942;2023-02-21T13:28:21;55.23;;;34.73;;
52380;SDS011;38310;52.796;6.942;2023-02-21T13:30:50;52.42;;;36.75;;
52380;SDS011;38310;52.796;6.942;2023-02-21T13:33:51;53.92;;;34.28;;
52380;SDS011;38310;52.796;6.942;2023-02-21T13:38:59;52.90;;;33.67;;
52380;SDS011;38310;52.796;6.942;2023-02-21T13:44:41;54.08;;;34.00;;
52380;SDS011;38310;52.796;6.942;2023-02-21T13:47:16;54.90;;;33.85;;
52380;SDS011;38310;52.796;6.942;2023-02-21T13:49:54;50.75;;;33.83;;
52380;SDS011;38310;52.796;6.942;2023-02-21T13:52:24;54.17;;;34.13;;
52380;SDS011;38310;52.796;6.942;2023-02-21T13:57:37;51.28;;;33.47;;
52380;SDS011;38310;52.796;6.942;2023-02-21T14:08:12;52.92;;;34.70;;
52380;SDS011;38310;52.796;6.942;2023-02-21T14:11:01;54.28;;;33.92;;
52380;SDS011;38310;52.796;6.942;2023-02-21T14:13:40;55.67;;;35.35;;
52380;SDS011;38310;52.796;6.942;2023-02-21T14:16:24;52.78;;;32.80;;
52380;SDS011;38310;52.796;6.942;2023-02-21T14:18:57;51.80;;;32.85;;
52380;SDS011;38310;52.796;6.942;2023-02-21T14:21:36;50.65;;;34.15;;
52380;SDS011;38310;52.796;6.942;2023-02-21T14:27:03;51.35;;;32.85;;
52380;SDS011;38310;52.796;6.942;2023-02-21T14:32:46;54.75;;;35.45;;
52380;SDS011;38310;52.796;6.942;2023-02-21T14:38:18;53.28;;;35.15;;
52380;SDS011;38310;52.796;6.942;2023-02-21T14:44:02;50.58;;;31.88;;
52380;SDS011;38310;52.796;6.942;2023-02-21T14:52:24;58.67;;;38.20;;
52380;SDS011;38310;52.796;6.942;2023-02-21T15:03:28;55.33;;;36.92;;
52380;SDS011;38310;52.796;6.942;2023-02-21T15:08:27;60.65;;;37.45;;
52380;SDS011;38310;52.796;6.942;2023-02-21T15:10:54;56.97;;;37.38;;
52380;SDS011;38310;52.796;6.942;2023-02-21T15:15:57;64.85;;;39.58;;
52380;SDS011;38310;52.796;6.942;2023-02-21T15:18:24;60.80;;;38.08;;
52380;SDS011;38310;52.796;6.942;2023-02-21T15:21:07;59.92;;;37.00;;
52380;SDS011;38310;52.796;6.942;2023-02-21T15:23:41;62.38;;;41.22;;
52380;SDS011;38310;52.796;6.942;2023-02-21T15:26:27;65.00;;;41.83;;
52380;SDS011;38310;52.796;6.942;2023-02-21T15:29:04;60.83;;;38.90;;
52380;SDS011;38310;52.796;6.942;2023-02-21T15:31:33;62.70;;;39.85;;
52380;SDS011;38310;52.796;6.942;2023-02-21T15:34:00;64.50;;;43.03;;
52380;SDS011;38310;52.796;6.942;2023-02-21T15:36:26;62.25;;;38.25;;
52380;SDS011;38310;52.796;6.942;2023-02-21T15:39:03;67.10;;;40.78;;
52380;SDS011;38310;52.796;6.942;2023-02-21T15:41:48;63.22;;;40.28;;
52380;SDS011;38310;52.796;6.942;2023-02-21T15:46:51;64.70;;;41.58;;
52380;SDS011;38310;52.796;6.942;2023-02-21T15:49:57;66.25;;;41.75;;
52380;SDS011;38310;52.796;6.942;2023-02-21T15:52:33;64.53;;;40.85;;
52380;SDS011;38310;52.796;6.942;2023-02-21T16:00:31;64.93;;;40.65;;
52380;SDS011;38310;52.796;6.942;2023-02-21T16:08:39;67.90;;;41.53;;
52380;SDS011;38310;52.796;6.942;2023-02-21T16:11:14;76.93;;;43.95;;
52380;SDS011;38310;52.796;6.942;2023-02-21T16:13:41;70.65;;;42.17;;
52380;SDS011;38310;52.796;6.942;2023-02-21T16:16:07;79.03;;;40.97;;
52380;SDS011;38310;52.796;6.942;2023-02-21T16:18:33;73.90;;;43.58;;
52380;SDS011;38310;52.796;6.942;2023-02-21T16:21:03;71.20;;;39.63;;
52380;SDS011;38310;52.796;6.942;2023-02-21T16:23:32;75.60;;;43.22;;
52380;SDS011;38310;52.796;6.942;2023-02-21T16:26:18;88.18;;;47.65;;
52380;SDS011;38310;52.796;6.942;2023-02-21T16:28:49;80.93;;;41.88;;
52380;SDS011;38310;52.796;6.942;2023-02-21T16:31:16;80.78;;;44.78;;
52380;SDS011;38310;52.796;6.942;2023-02-21T16:33:53;85.97;;;45.92;;
52380;SDS011;38310;52.796;6.942;2023-02-21T16:36:22;87.93;;;45.60;;
52380;SDS011;38310;52.796;6.942;2023-02-21T16:38:51;81.82;;;42.92;;
52380;SDS011;38310;52.796;6.942;2023-02-21T16:41:18;78.63;;;45.13;;
52380;SDS011;38310;52.796;6.942;2023-02-21T16:43:44;84.75;;;46.03;;
52380;SDS011;38310;52.796;6.942;2023-02-21T16:46:10;87.53;;;46.17;;
52380;SDS011;38310;52.796;6.942;2023-02-21T16:48:37;86.63;;;44.60;;
52380;SDS011;38310;52.796;6.942;2023-02-21T16:51:04;85.28;;;45.38;;
52380;SDS011;38310;52.796;6.942;2023-02-21T16:53:34;89.72;;;45.05;;
52380;SDS011;38310;52.796;6.942;2023-02-21T16:56:00;82.32;;;45.13;;
52380;SDS011;38310;52.796;6.942;2023-02-21T17:00:56;94.93;;;47.95;;
52380;SDS011;38310;52.796;6.942;2023-02-21T17:03:26;81.40;;;45.55;;
52380;SDS011;38310;52.796;6.942;2023-02-21T17:05:52;79.63;;;43.38;;
52380;SDS011;38310;52.796;6.942;2023-02-21T17:08:20;81.53;;;45.13;;
52380;SDS011;38310;52.796;6.942;2023-02-21T17:10:46;84.60;;;44.25;;
52380;SDS011;38310;52.796;6.942;2023-02-21T17:13:12;81.50;;;44.92;;
52380;SDS011;38310;52.796;6.942;2023-02-21T17:15:38;99.72;;;47.92;;
52380;SDS011;38310;52.796;6.942;2023-02-21T17:18:03;86.68;;;46.03;;
52380;SDS011;38310;52.796;6.942;2023-02-21T17:20:29;95.45;;;50.28;;
52380;SDS011;38310;52.796;6.942;2023-02-21T17:22:55;97.65;;;48.70;;
52380;SDS011;38310;52.796;6.942;2023-02-21T17:25:25;91.75;;;48.80;;
52380;SDS011;38310;52.796;6.942;2023-02-21T17:27:51;92.32;;;48.85;;
52380;SDS011;38310;52.796;6.942;2023-02-21T17:30:18;97.80;;;50.03;;
52380;SDS011;38310;52.796;6.942;2023-02-21T17:32:45;93.40;;;48.53;;
52380;SDS011;38310;52.796;6.942;2023-02-21T17:35:12;83.05;;;46.63;;
52380;SDS011;38310;52.796;6.942;2023-02-21T17:37:40;87.72;;;44.88;;
52380;SDS011;38310;52.796;6.942;2023-02-21T17:40:11;94.90;;;48.00;;
52380;SDS011;38310;52.796;6.942;2023-02-21T17:42:38;84.05;;;45.55;;
52380;SDS011;38310;52.796;6.942;2023-02-21T17:45:04;89.30;;;47.20;;
52380;SDS011;38310;52.796;6.942;2023-02-21T17:47:31;81.25;;;44.67;;
52380;SDS011;38310;52.796;6.942;2023-02-21T17:49:57;84.85;;;43.70;;
52380;SDS011;38310;52.796;6.942;2023-02-21T17:52:24;92.65;;;48.35;;
52380;SDS011;38310;52.796;6.942;2023-02-21T17:54:51;87.07;;;44.90;;
52380;SDS011;38310;52.796;6.942;2023-02-21T17:57:17;86.75;;;44.95;;
52380;SDS011;38310;52.796;6.942;2023-02-21T17:59:43;82.68;;;43.53;;
52380;SDS011;38310;52.796;6.942;2023-02-21T18:02:09;83.10;;;42.40;;
52380;SDS011;38310;52.796;6.942;2023-02-21T18:04:37;75.07;;;39.95;;